createdAt,value
2022-10-19T00:01:56.667Z,101694.91
2022-10-19T00:04:23.102Z,101696.63
2022-10-19T00:06:49.414Z,101696.91
2022-10-19T00:09:18.564Z,101702.34
2022-10-19T00:11:47.486Z,101702.34
2022-10-19T00:14:17.714Z,101712.66
2022-10-19T00:16:45.744Z,101709.66
2022-10-19T00:19:15.941Z,101713.25
2022-10-19T00:21:42.398Z,101714.97
2022-10-19T00:24:08.654Z,101723.84
2022-10-19T00:26:35.250Z,101721.69
2022-10-19T00:29:01.629Z,101715.69
2022-10-19T00:31:28.009Z,101720.97
2022-10-19T00:33:57.068Z,101725.28
2022-10-19T00:36:27.663Z,101722.56
2022-10-19T00:38:55.152Z,101720.84
2022-10-19T00:41:27.877Z,101710.22
2022-10-19T00:48:27.336Z,101699.47
2022-10-19T00:50:56.276Z,101710.66
2022-10-19T00:53:24.050Z,101698.63
2022-10-19T00:55:50.525Z,101708.66
2022-10-19T00:58:16.679Z,101706.78
2022-10-19T01:00:43.115Z,101705.22
2022-10-19T01:03:11.176Z,101712.06
2022-10-19T01:05:38.517Z,101715.81
2022-10-19T01:08:06.997Z,101713.22
2022-10-19T01:11:01.206Z,101699.47
2022-10-19T01:13:43.265Z,101707.78
2022-10-19T01:16:44.360Z,101710.50
2022-10-19T01:19:35.234Z,101697.75
2022-10-19T01:22:22.092Z,101692.31
2022-10-19T01:25:33.575Z,101693.47
2022-10-19T01:27:59.804Z,101694.03
2022-10-19T01:30:41.076Z,101693.16
2022-10-19T01:33:21.228Z,101687.16
2022-10-19T01:36:13.785Z,101693.47
2022-10-19T01:38:51.796Z,101683.72
2022-10-19T01:41:47.078Z,101683.72
2022-10-19T01:44:21.563Z,101694.47
2022-10-19T01:47:04.223Z,101683.47
2022-10-19T01:49:49.454Z,101689.63
2022-10-19T01:52:19.955Z,101682.94
2022-10-19T01:54:53.834Z,101686.94
2022-10-19T01:57:27.777Z,101689.25
2022-10-19T01:59:56.864Z,101690.69
2022-10-19T02:02:26.268Z,101684.09
2022-10-19T02:04:54.676Z,101687.53
2022-10-19T02:07:22.206Z,101671.22
2022-10-19T02:09:48.686Z,101675.22
2022-10-19T02:12:16.166Z,101674.06
2022-10-19T02:14:49.155Z,101669.78
2022-10-19T02:17:20.426Z,101669.78
2022-10-19T02:19:46.963Z,101676.66
2022-10-19T02:22:13.506Z,101675.94
2022-10-19T02:24:40.519Z,101674.22
2022-10-19T02:27:08.014Z,101678.34
2022-10-19T02:29:36.490Z,101669.19
2022-10-19T02:32:03.823Z,101672.78
2022-10-19T02:34:30.941Z,101676.78
2022-10-19T02:36:57.429Z,101673.94
2022-10-19T02:39:24.222Z,101667.47
2022-10-19T02:42:18.655Z,101671.78
2022-10-19T02:45:07.518Z,101672.63
2022-10-19T02:47:38.065Z,101669.63
2022-10-19T02:50:07.212Z,101673.78
2022-10-19T02:52:35.618Z,101669.78
2022-10-19T02:55:01.966Z,101674.78
2022-10-19T02:57:28.237Z,101668.63
2022-10-19T02:59:54.606Z,101672.91
2022-10-19T03:02:20.718Z,101668.19
2022-10-19T03:07:20.303Z,101671.75
2022-10-19T03:09:47.060Z,101671.47
2022-10-19T03:12:13.826Z,101672.19
2022-10-19T03:14:40.310Z,101656.84
2022-10-19T03:17:06.510Z,101670.47
2022-10-19T03:19:34.750Z,101670.72
2022-10-19T03:22:01.077Z,101667.13
2022-10-19T03:24:29.757Z,101663.16
2022-10-19T03:26:56.273Z,101673.56
2022-10-19T03:29:22.817Z,101673.56
2022-10-19T03:31:49.295Z,101667.31
2022-10-19T03:34:15.806Z,101667.75
2022-10-19T03:36:42.197Z,101663.59
2022-10-19T03:39:13.927Z,101665.88
2022-10-19T03:41:40.651Z,101656.72
2022-10-19T03:44:08.875Z,101657.28
2022-10-19T03:46:35.779Z,101659.88
2022-10-19T03:49:03.472Z,101658.03
2022-10-19T03:51:31.024Z,101661.75
2022-10-19T03:54:00.050Z,101665.31
2022-10-19T03:56:28.409Z,101656.59
2022-10-19T03:58:56.496Z,101667.47
2022-10-19T04:01:26.282Z,101667.78
2022-10-19T04:04:01.140Z,101663.03
2022-10-19T04:06:30.395Z,101664.03
2022-10-19T04:08:57.404Z,101666.34
2022-10-19T04:11:26.864Z,101678.38
2022-10-19T04:13:54.858Z,101668.63
2022-10-19T04:16:23.141Z,101666.34
2022-10-19T04:18:50.180Z,101676.09
2022-10-19T04:21:26.182Z,101676.94
2022-10-19T04:23:56.550Z,101673.66
2022-10-19T04:26:22.720Z,101676.09
2022-10-19T04:28:49.190Z,101681.78
2022-10-19T04:31:15.568Z,101681.78
2022-10-19T04:33:42.229Z,101684.94
2022-10-19T04:36:10.776Z,101686.06
2022-10-19T04:38:37.904Z,101677.47
2022-10-19T04:41:07.265Z,101675.34
2022-10-19T04:43:34.335Z,101677.22
2022-10-19T04:46:09.303Z,101681.53
2022-10-19T04:48:38.092Z,101677.81
2022-10-19T04:51:04.605Z,101686.97
2022-10-19T04:53:32.391Z,101682.94
2022-10-19T04:55:58.755Z,101682.25
2022-10-19T04:58:26.429Z,101686.34
2022-10-19T05:00:52.650Z,101678.09
2022-10-19T05:03:19.382Z,101686.66
2022-10-19T05:05:45.521Z,101678.34
2022-10-19T05:08:11.922Z,101682.22
2022-10-19T05:10:38.218Z,101675.47
2022-10-19T05:13:05.028Z,101673.91
2022-10-19T05:15:32.264Z,101684.78
2022-10-19T05:17:58.970Z,101677.47
2022-10-19T05:20:25.356Z,101687.78
2022-10-19T05:22:52.011Z,101694.63
2022-10-19T05:25:18.379Z,101695.34
2022-10-19T05:27:45.367Z,101685.59
2022-10-19T05:30:13.666Z,101695.75
2022-10-19T05:32:40.307Z,101685.16
2022-10-19T05:35:06.731Z,101696.91
2022-10-19T05:37:33.536Z,101697.75
2022-10-19T05:40:02.578Z,101700.47
2022-10-19T05:42:29.048Z,101709.75
2022-10-19T05:44:55.469Z,101707.19
2022-10-19T05:47:21.824Z,101708.34
2022-10-19T05:49:47.984Z,101701.75
2022-10-19T05:52:16.939Z,101708.91
2022-10-19T05:54:43.125Z,101701.28
2022-10-19T05:57:09.601Z,101700.91
2022-10-19T05:59:35.828Z,101703.91
2022-10-19T06:02:02.942Z,101717.03
2022-10-19T06:04:29.222Z,101708.63
2022-10-19T06:06:55.812Z,101724.50
2022-10-19T06:09:22.424Z,101720.78
2022-10-19T06:11:48.942Z,101721.22
2022-10-19T06:14:15.857Z,101717.09
2022-10-19T06:16:45.086Z,101719.41
2022-10-19T06:19:11.392Z,101734.16
2022-10-19T06:21:40.655Z,101726.31
2022-10-19T06:24:10.714Z,101734.19
2022-10-19T06:26:37.256Z,101735.59
2022-10-19T06:29:04.214Z,101734.44
2022-10-19T06:31:33.366Z,101743.75
2022-10-19T06:34:00.118Z,101751.78
2022-10-19T06:36:29.122Z,101755.22
2022-10-19T06:38:59.300Z,101755.66
2022-10-19T06:41:25.826Z,101758.84
2022-10-19T06:43:53.653Z,101759.50
2022-10-19T06:46:22.625Z,101761.66
2022-10-19T06:48:57.648Z,101755.38
2022-10-19T06:51:25.707Z,101769.47
2022-10-19T06:53:56.531Z,101758.44
2022-10-19T06:56:25.523Z,101764.03
2022-10-19T06:58:52.093Z,101762.59
2022-10-19T07:01:18.605Z,101758.81
2022-10-19T07:03:45.000Z,101766.69
2022-10-19T07:06:12.875Z,101757.97
2022-10-19T07:08:41.035Z,101765.69
2022-10-19T07:11:15.449Z,101773.44
2022-10-19T07:13:41.947Z,101777.16
2022-10-19T07:16:17.779Z,101780.44
2022-10-19T07:18:52.210Z,101778.72
2022-10-19T07:21:20.576Z,101775.97
2022-10-19T07:23:47.837Z,101782.00
2022-10-19T07:26:22.502Z,101786.84
2022-10-19T07:28:49.820Z,101792.13
2022-10-19T07:31:22.285Z,101788.41
2022-10-19T07:33:59.408Z,101791.59
2022-10-19T07:36:27.485Z,101788.00
2022-10-19T07:38:54.760Z,101786.31
2022-10-19T07:41:23.178Z,101786.06
2022-10-19T07:43:50.565Z,101784.59
2022-10-19T07:46:24.573Z,101782.97
2022-10-19T07:48:51.392Z,101786.53
2022-10-19T07:51:19.382Z,101794.19
2022-10-19T07:53:45.746Z,101787.31
2022-10-19T07:56:15.413Z,101796.38
2022-10-19T07:58:42.326Z,101801.38
2022-10-19T08:01:12.049Z,101794.19
2022-10-19T08:06:25.589Z,101791.63
2022-10-19T08:08:52.820Z,101796.34
2022-10-19T08:11:28.556Z,101798.34
2022-10-19T08:13:58.151Z,101801.75
2022-10-19T08:16:32.268Z,101803.75
2022-10-19T08:19:04.826Z,101804.38
2022-10-19T08:21:31.309Z,101806.94
2022-10-19T08:23:58.265Z,101815.25
2022-10-19T08:26:29.103Z,101803.25
2022-10-19T08:29:04.818Z,101799.34
2022-10-19T08:31:31.606Z,101801.53
2022-10-19T08:33:58.250Z,101803.63
2022-10-19T08:36:25.402Z,101802.81
2022-10-19T08:38:51.684Z,101808.13
2022-10-19T08:41:24.112Z,101809.25
2022-10-19T08:44:21.232Z,101803.94
2022-10-19T08:47:13.336Z,101803.81
2022-10-19T08:49:41.073Z,101803.94
2022-10-19T08:52:17.152Z,101803.50
2022-10-19T08:54:49.124Z,101803.09
2022-10-19T08:57:31.894Z,101791.63
2022-10-19T09:00:18.527Z,101798.50
2022-10-19T09:03:03.593Z,101803.97
2022-10-19T09:05:46.027Z,101803.97
2022-10-19T09:08:17.616Z,101807.97
2022-10-19T09:10:48.438Z,101803.25
2022-10-19T09:13:41.486Z,101799.34
2022-10-19T09:16:20.593Z,101799.59
2022-10-19T09:18:48.816Z,101805.28
2022-10-19T09:21:25.831Z,101813.25
2022-10-19T09:24:11.851Z,101819.34
2022-10-19T09:26:57.453Z,101819.50
2022-10-19T09:29:39.761Z,101833.56
2022-10-19T09:32:13.763Z,101829.91
2022-10-19T09:34:45.587Z,101830.72
2022-10-19T09:37:18.832Z,101834.03
2022-10-19T09:39:54.078Z,101833.72
2022-10-19T09:42:32.567Z,101846.38
2022-10-19T09:45:01.445Z,101841.38
2022-10-19T09:47:38.432Z,101846.66
2022-10-19T09:50:16.955Z,101856.56
2022-10-19T09:52:45.483Z,101853.13
2022-10-19T09:55:24.329Z,101854.41
2022-10-19T09:57:59.035Z,101843.09
2022-10-19T10:00:34.661Z,101849.22
2022-10-19T10:03:01.072Z,101850.78
2022-10-19T10:05:38.872Z,101852.75
2022-10-19T10:08:14.324Z,101846.91
2022-10-19T10:10:48.394Z,101850.25
2022-10-19T10:13:23.165Z,101852.00
2022-10-19T10:15:55.807Z,101858.06
2022-10-19T10:18:24.266Z,101846.94
2022-10-19T10:20:58.655Z,101841.25
2022-10-19T10:23:28.208Z,101854.22
2022-10-19T10:25:56.723Z,101851.91
2022-10-19T10:28:28.688Z,101850.25
2022-10-19T10:30:59.590Z,101853.53
2022-10-19T10:33:40.743Z,101842.63
2022-10-19T10:36:11.920Z,101845.91
2022-10-19T10:38:46.367Z,101850.75
2022-10-19T10:41:19.507Z,101858.44
2022-10-19T10:43:54.494Z,101846.59
2022-10-19T10:46:26.001Z,101852.41
2022-10-19T10:49:07.604Z,101850.81
2022-10-19T10:51:39.746Z,101855.03
2022-10-19T10:54:17.676Z,101848.28
2022-10-19T10:56:59.349Z,101859.88
2022-10-19T10:59:51.179Z,101852.38
2022-10-19T11:02:36.655Z,101845.53
2022-10-19T11:05:22.229Z,101858.44
2022-10-19T11:07:53.950Z,101852.56
2022-10-19T11:10:29.451Z,101857.00
2022-10-19T11:13:20.842Z,101851.09
2022-10-19T11:15:56.981Z,101853.31
2022-10-19T11:18:36.336Z,101858.38
2022-10-19T11:21:21.056Z,101850.81
2022-10-19T11:24:01.612Z,101854.41
2022-10-19T11:26:40.073Z,101863.16
2022-10-19T11:29:18.499Z,101873.34
2022-10-19T11:31:51.102Z,101886.22
2022-10-19T11:34:37.831Z,101900.56
2022-10-19T11:37:50.260Z,101904.22
2022-10-19T11:40:45.800Z,101896.25
2022-10-19T11:43:47.736Z,101902.25
2022-10-19T11:46:23.167Z,101902.56
2022-10-19T11:49:20.379Z,101885.94
2022-10-19T11:51:51.343Z,101886.25
2022-10-19T11:54:35.967Z,101894.13
2022-10-19T11:57:18.830Z,101888.66
2022-10-19T12:00:03.832Z,101897.28
2022-10-19T12:02:49.578Z,101889.25
2022-10-19T12:05:15.966Z,101877.16
2022-10-19T12:08:01.007Z,101872.59
2022-10-19T12:10:59.149Z,101873.72
2022-10-19T12:13:34.262Z,101873.38
2022-10-19T12:16:01.358Z,101862.84
2022-10-19T12:18:43.056Z,101869.34
2022-10-19T12:21:24.100Z,101874.81
2022-10-19T12:23:51.462Z,101874.72
2022-10-19T12:26:20.985Z,101875.63
2022-10-19T12:28:53.988Z,101866.13
2022-10-19T12:31:22.715Z,101872.00
2022-10-19T12:34:09.838Z,101866.16
2022-10-19T12:37:06.585Z,101868.75
2022-10-19T12:39:51.541Z,101878.84
2022-10-19T12:42:41.479Z,101878.44
2022-10-19T12:45:29.731Z,101879.47
2022-10-19T12:48:19.100Z,101872.00
2022-10-19T12:50:48.699Z,101879.41
2022-10-19T12:56:02.995Z,101869.56
2022-10-19T12:58:47.682Z,101874.84
2022-10-19T13:01:20.512Z,101877.72
2022-10-19T13:03:50.848Z,101877.72
2022-10-19T13:06:30.195Z,101880.19
2022-10-19T13:09:00.406Z,101882.47
2022-10-19T13:11:27.119Z,101869.19
2022-10-19T13:13:56.514Z,101868.03
2022-10-19T13:16:29.125Z,101874.47
2022-10-19T13:18:58.389Z,101867.25
2022-10-19T13:21:54.202Z,101861.75
2022-10-19T13:24:23.715Z,101865.56
2022-10-19T13:27:02.457Z,101865.97
2022-10-19T13:29:38.096Z,101867.03
2022-10-19T13:32:36.853Z,101868.84
2022-10-19T13:35:22.364Z,101876.31
2022-10-19T13:38:14.411Z,101873.75
2022-10-19T13:40:49.026Z,101876.41
2022-10-19T13:43:37.879Z,101880.34
2022-10-19T13:46:09.168Z,101880.59
2022-10-19T13:48:44.803Z,101885.53
2022-10-19T13:51:47.763Z,101890.31
2022-10-19T13:54:26.276Z,101900.06
2022-10-19T13:57:05.997Z,101894.75
2022-10-19T13:59:41.537Z,101885.28
2022-10-19T14:02:26.204Z,101899.19
2022-10-19T14:05:07.311Z,101896.75
2022-10-19T14:07:51.575Z,101897.47
2022-10-19T14:10:22.714Z,101896.28
2022-10-19T14:12:56.090Z,101886.50
2022-10-19T14:15:27.443Z,101888.53
2022-10-19T14:17:54.392Z,101886.47
2022-10-19T14:20:33.535Z,101887.38
2022-10-19T14:23:24.165Z,101889.13
2022-10-19T14:25:57.148Z,101888.97
2022-10-19T14:28:24.307Z,101896.59
2022-10-19T14:30:55.091Z,101891.50
2022-10-19T14:33:21.554Z,101892.97
2022-10-19T14:35:50.039Z,101899.00
2022-10-19T14:38:37.722Z,101887.81
2022-10-19T14:41:05.984Z,101892.25
2022-10-19T14:43:34.034Z,101903.44
2022-10-19T14:46:09.516Z,101902.88
2022-10-19T14:48:41.501Z,101900.00
2022-10-19T14:51:28.912Z,101889.53
2022-10-19T14:53:58.518Z,101906.16
2022-10-19T14:56:50.615Z,101899.56
2022-10-19T14:59:26.059Z,101899.13
2022-10-19T15:01:56.373Z,101893.69
2022-10-19T15:04:33.646Z,101910.72
2022-10-19T15:07:04.281Z,101897.25
2022-10-19T15:09:47.846Z,101903.56
2022-10-19T15:12:19.832Z,101895.53
2022-10-19T15:14:47.198Z,101908.84
2022-10-19T15:17:24.002Z,101907.56
2022-10-19T15:19:51.409Z,101901.13
2022-10-19T15:22:36.241Z,101905.41
2022-10-19T15:25:05.543Z,101893.97
2022-10-19T15:27:45.428Z,101900.97
2022-10-19T15:30:28.564Z,101906.69
2022-10-19T15:33:01.510Z,101911.38
2022-10-19T15:35:36.781Z,101913.31
2022-10-19T15:38:21.486Z,101916.00
2022-10-19T15:40:48.728Z,101917.25
2022-10-19T15:43:30.333Z,101924.25
2022-10-19T15:46:12.665Z,101920.22
2022-10-19T15:48:46.458Z,101923.19
2022-10-19T15:51:24.951Z,101928.81
2022-10-19T15:53:53.529Z,101924.97
2022-10-19T15:56:20.405Z,101933.41
2022-10-19T15:58:53.526Z,101936.53
2022-10-19T16:01:22.194Z,101931.94
2022-10-19T16:03:49.453Z,101939.72
2022-10-19T16:06:17.392Z,101941.09
2022-10-19T16:08:45.592Z,101943.09
2022-10-19T16:11:14.167Z,101943.03
2022-10-19T16:13:41.024Z,101946.38
2022-10-19T16:16:17.701Z,101949.50
2022-10-19T16:18:44.209Z,101942.28
2022-10-19T16:21:10.416Z,101951.44
2022-10-19T16:23:41.862Z,101950.84
2022-10-19T16:26:12.831Z,101957.78
2022-10-19T16:28:39.678Z,101955.47
2022-10-19T16:31:05.934Z,101954.22
2022-10-19T16:33:32.770Z,101963.38
2022-10-19T16:35:59.204Z,101964.41
2022-10-19T16:38:25.886Z,101967.50
2022-10-19T16:40:52.130Z,101971.94
2022-10-19T16:43:18.550Z,101968.38
2022-10-19T16:45:44.868Z,101977.03
2022-10-19T16:48:11.786Z,101975.22
2022-10-19T16:50:38.011Z,101977.69
2022-10-19T16:53:11.916Z,101985.34
2022-10-19T16:55:39.976Z,101977.47
2022-10-19T16:58:07.179Z,101987.06
2022-10-19T17:00:34.861Z,101988.09
2022-10-19T17:03:01.566Z,101990.06
2022-10-19T17:05:28.468Z,101996.63
2022-10-19T17:07:55.151Z,101993.28
2022-10-19T17:10:21.563Z,101992.66
2022-10-19T17:12:48.292Z,101999.34
2022-10-19T17:15:44.655Z,102007.56
2022-10-19T17:18:01.432Z,101998.84
2022-10-19T17:20:29.806Z,102012.41
2022-10-19T17:22:56.802Z,102023.88
2022-10-19T17:25:23.284Z,102020.69
2022-10-19T17:27:50.877Z,102017.88
2022-10-19T17:30:17.537Z,102017.88
2022-10-19T17:32:44.158Z,102019.50
2022-10-19T17:35:10.405Z,102020.59
2022-10-19T17:37:38.478Z,102027.75
2022-10-19T17:40:06.135Z,102024.16
2022-10-19T17:42:36.038Z,102033.66
2022-10-19T17:45:02.538Z,102028.22
2022-10-19T17:47:29.798Z,102029.69
2022-10-19T17:49:55.966Z,102036.34
2022-10-19T17:52:22.361Z,102039.06
2022-10-19T17:55:11.271Z,102036.09
2022-10-19T17:57:36.161Z,102039.66
2022-10-19T18:00:05.325Z,102049.13
2022-10-19T18:02:39.981Z,102039.63
2022-10-19T18:05:09.745Z,102049.09
2022-10-19T18:07:36.775Z,102052.66
2022-10-19T18:10:03.637Z,102043.41
2022-10-19T18:12:30.268Z,102056.06
2022-10-19T18:14:56.465Z,102054.81
2022-10-19T18:17:25.552Z,102052.19
2022-10-19T18:19:55.230Z,102051.16
2022-10-19T18:22:22.758Z,102058.75
2022-10-19T18:24:49.749Z,102058.22
2022-10-19T18:27:16.294Z,102055.38
2022-10-19T18:29:42.892Z,102050.63
2022-10-19T18:32:11.600Z,102054.25
2022-10-19T18:34:39.048Z,102052.22
2022-10-19T18:37:07.724Z,102053.41
2022-10-19T18:39:34.192Z,102053.31
2022-10-19T18:42:01.009Z,102059.50
2022-10-19T18:44:29.523Z,102068.25
2022-10-19T18:46:58.052Z,102069.88
2022-10-19T18:49:26.570Z,102067.28
2022-10-19T18:51:55.428Z,102070.50
2022-10-19T18:54:26.705Z,102071.59
2022-10-19T18:56:54.707Z,102076.38
2022-10-19T18:59:21.256Z,102071.09
2022-10-19T19:01:48.374Z,102077.91
2022-10-19T19:04:14.757Z,102082.75
2022-10-19T19:06:41.547Z,102085.47
2022-10-19T19:09:10.299Z,102089.66
2022-10-19T19:11:40.390Z,102096.16
2022-10-19T19:14:14.688Z,102094.31
2022-10-19T19:16:43.268Z,102092.47
2022-10-19T19:19:11.966Z,102096.91
2022-10-19T19:21:41.243Z,102092.56
2022-10-19T19:24:14.725Z,102093.09
2022-10-19T19:26:46.105Z,102101.00
2022-10-19T19:29:12.411Z,102098.28
2022-10-19T19:31:39.632Z,102097.63
2022-10-19T19:34:08.833Z,102105.09
2022-10-19T19:36:37.545Z,102105.31
2022-10-19T19:39:04.847Z,102104.47
2022-10-19T19:41:35.332Z,102094.47
2022-10-19T19:44:02.134Z,102105.03
2022-10-19T19:46:29.225Z,102096.53
2022-10-19T19:49:01.493Z,102102.06
2022-10-19T19:51:29.816Z,102099.88
2022-10-19T19:53:57.331Z,102104.00
2022-10-19T19:56:25.676Z,102097.94
2022-10-19T19:58:55.857Z,102100.09
2022-10-19T20:01:22.956Z,102107.84
2022-10-19T20:03:49.563Z,102110.94
2022-10-19T20:06:20.738Z,102112.06
2022-10-19T20:08:50.701Z,102110.19
2022-10-19T20:11:21.286Z,102103.66
2022-10-19T20:13:47.942Z,102105.28
2022-10-19T20:16:23.820Z,102106.44
2022-10-19T20:18:59.957Z,102103.16
2022-10-19T20:21:32.882Z,102100.91
2022-10-19T20:24:00.024Z,102100.44
2022-10-19T20:26:28.829Z,102096.69
2022-10-19T20:28:56.820Z,102102.22
2022-10-19T20:31:24.223Z,102107.66
2022-10-19T20:33:50.906Z,102107.00
2022-10-19T20:36:23.842Z,102108.72
2022-10-19T20:38:55.942Z,102114.78
2022-10-19T20:41:24.742Z,102105.34
2022-10-19T20:43:53.039Z,102109.88
2022-10-19T20:46:22.698Z,102108.53
2022-10-19T20:48:49.763Z,102118.06
2022-10-19T20:51:18.439Z,102124.06
2022-10-19T20:53:47.653Z,102117.97
2022-10-19T20:56:17.274Z,102118.84
2022-10-19T20:58:44.950Z,102118.16
2022-10-19T21:01:18.553Z,102117.19
2022-10-19T21:03:46.752Z,102117.47
2022-10-19T21:06:13.666Z,102119.31
2022-10-19T21:08:39.971Z,102127.03
2022-10-19T21:11:40.144Z,102125.88
2022-10-19T21:14:11.690Z,102143.19
2022-10-19T21:16:39.092Z,102134.72
2022-10-19T21:19:09.887Z,102140.78
2022-10-19T21:21:42.941Z,102135.97
2022-10-19T21:24:20.077Z,102137.31
2022-10-19T21:26:47.706Z,102141.94
2022-10-19T21:29:15.626Z,102151.53
2022-10-19T21:31:47.866Z,102152.41
2022-10-19T21:34:21.983Z,102141.81
2022-10-19T21:36:48.762Z,102136.91
2022-10-19T21:39:15.499Z,102143.16
2022-10-19T21:41:41.956Z,102128.25
2022-10-19T21:44:09.684Z,102128.66
2022-10-19T21:46:36.178Z,102127.69
2022-10-19T21:49:02.444Z,102134.97
2022-10-19T21:51:54.735Z,102129.16
2022-10-19T21:54:26.587Z,102132.13
2022-10-19T21:56:54.955Z,102135.22
2022-10-19T21:59:21.131Z,102140.16
2022-10-19T22:01:47.800Z,102134.81
2022-10-19T22:04:16.479Z,102146.88
2022-10-19T22:06:43.988Z,102148.28
2022-10-19T22:09:16.572Z,102143.84
2022-10-19T22:11:43.014Z,102149.50
2022-10-19T22:14:10.884Z,102147.84
2022-10-19T22:16:38.615Z,102146.38
2022-10-19T22:19:05.704Z,102151.84
2022-10-19T22:21:33.898Z,102153.06
2022-10-19T22:24:05.954Z,102145.94
2022-10-19T22:26:38.771Z,102158.78
2022-10-19T22:29:06.248Z,102159.66
2022-10-19T22:31:34.169Z,102157.84
2022-10-19T22:34:03.241Z,102156.28
2022-10-19T22:36:30.262Z,102161.22
2022-10-19T22:38:56.381Z,102164.94
2022-10-19T22:42:19.019Z,102162.84
2022-10-19T22:45:59.801Z,102158.59
2022-10-19T22:49:40.813Z,102167.81
2022-10-19T22:52:58.738Z,102166.25
2022-10-19T22:55:25.139Z,102172.94
2022-10-19T22:57:51.410Z,102171.84
2022-10-19T23:00:17.838Z,102171.75
2022-10-19T23:02:44.035Z,102169.94
2022-10-19T23:05:10.452Z,102171.13
2022-10-19T23:07:37.897Z,102168.53
2022-10-19T23:10:05.404Z,102163.78
2022-10-19T23:12:31.551Z,102162.13
2022-10-19T23:14:57.876Z,102155.34
2022-10-19T23:17:24.100Z,102156.41
2022-10-19T23:19:50.472Z,102163.78
2022-10-19T23:22:16.606Z,102170.25
2022-10-19T23:24:42.986Z,102171.59
2022-10-19T23:27:09.392Z,102172.19
2022-10-19T23:29:35.827Z,102176.28
2022-10-19T23:32:01.951Z,102167.78
2022-10-19T23:34:28.399Z,102181.91
2022-10-19T23:36:54.583Z,102173.16
2022-10-19T23:39:20.947Z,102177.50
2022-10-19T23:41:47.162Z,102177.75
2022-10-19T23:44:13.523Z,102180.06
2022-10-19T23:46:39.781Z,102171.84
2022-10-19T23:49:06.130Z,102176.78
2022-10-19T23:51:32.331Z,102180.00
2022-10-19T23:53:58.854Z,102182.34
2022-10-19T23:56:27.965Z,102173.22
2022-10-19T23:58:55.253Z,102164.66
